sensor_id;sensor_type;location;lat;lon;timestamp;temperature;humidity
18506;DHT22;9382;53.242;10.438;2023-07-08T00:00:11;15.60;99.90
18506;DHT22;9382;53.242;10.438;2023-07-08T00:02:41;15.60;99.90
18506;DHT22;9382;53.242;10.438;2023-07-08T00:05:09;15.50;99.90
18506;DHT22;9382;53.242;10.438;2023-07-08T00:07:37;15.50;99.90
18506;DHT22;9382;53.242;10.438;2023-07-08T00:10:15;15.40;99.90
18506;DHT22;9382;53.242;10.438;2023-07-08T00:12:42;15.40;99.90
18506;DHT22;9382;53.242;10.438;2023-07-08T00:15:09;15.30;99.90
18506;DHT22;9382;53.242;10.438;2023-07-08T00:17:36;15.30;99.90
18506;DHT22;9382;53.242;10.438;2023-07-08T00:20:13;15.20;99.90
18506;DHT22;9382;53.242;10.438;2023-07-08T00:22:42;15.20;99.90
18506;DHT22;9382;53.242;10.438;2023-07-08T00:25:12;15.10;99.90
18506;DHT22;9382;53.242;10.438;2023-07-08T00:27:39;15.10;99.90
18506;DHT22;9382;53.242;10.438;2023-07-08T00:30:20;15.10;99.90
18506;DHT22;9382;53.242;10.438;2023-07-08T00:32:47;15.00;99.90
18506;DHT22;9382;53.242;10.438;2023-07-08T00:35:19;15.00;99.90
18506;DHT22;9382;53.242;10.438;2023-07-08T00:37:49;14.90;99.90
18506;DHT22;9382;53.242;10.438;2023-07-08T00:40:20;14.90;99.90
18506;DHT22;9382;53.242;10.438;2023-07-08T00:42:48;14.90;99.90
18506;DHT22;9382;53.242;10.438;2023-07-08T00:45:32;14.90;99.90
18506;DHT22;9382;53.242;10.438;2023-07-08T00:48:06;14.90;99.90
18506;DHT22;9382;53.242;10.438;2023-07-08T00:50:34;14.80;99.90
18506;DHT22;9382;53.242;10.438;2023-07-08T00:53:23;14.80;99.90
18506;DHT22;9382;53.242;10.438;2023-07-08T00:55:51;14.70;99.90
18506;DHT22;9382;53.242;10.438;2023-07-08T00:58:19;14.70;99.90
18506;DHT22;9382;53.242;10.438;2023-07-08T01:00:48;14.60;99.90
18506;DHT22;9382;53.242;10.438;2023-07-08T01:03:16;14.60;99.90
18506;DHT22;9382;53.242;10.438;2023-07-08T01:05:45;14.50;99.90
18506;DHT22;9382;53.242;10.438;2023-07-08T01:08:13;14.50;99.90
18506;DHT22;9382;53.242;10.438;2023-07-08T01:10:44;14.50;99.90
18506;DHT22;9382;53.242;10.438;2023-07-08T01:13:15;14.40;99.90
18506;DHT22;9382;53.242;10.438;2023-07-08T01:15:45;14.40;99.90
18506;DHT22;9382;53.242;10.438;2023-07-08T01:18:16;14.40;99.90
18506;DHT22;9382;53.242;10.438;2023-07-08T01:20:46;14.30;99.90
18506;DHT22;9382;53.242;10.438;2023-07-08T01:23:15;14.20;99.90
18506;DHT22;9382;53.242;10.438;2023-07-08T01:25:43;14.20;99.90
18506;DHT22;9382;53.242;10.438;2023-07-08T01:28:11;14.20;99.90
18506;DHT22;9382;53.242;10.438;2023-07-08T01:30:40;14.20;99.90
18506;DHT22;9382;53.242;10.438;2023-07-08T01:33:14;14.10;99.90
18506;DHT22;9382;53.242;10.438;2023-07-08T01:35:42;14.10;99.90
18506;DHT22;9382;53.242;10.438;2023-07-08T01:38:11;14.00;99.90
18506;DHT22;9382;53.242;10.438;2023-07-08T01:40:48;14.00;99.90
18506;DHT22;9382;53.242;10.438;2023-07-08T01:43:15;14.00;99.90
18506;DHT22;9382;53.242;10.438;2023-07-08T01:45:43;13.90;99.90
18506;DHT22;9382;53.242;10.438;2023-07-08T01:48:11;13.90;99.90
18506;DHT22;9382;53.242;10.438;2023-07-08T01:50:42;13.80;99.90
18506;DHT22;9382;53.242;10.438;2023-07-08T01:53:14;13.80;99.90
18506;DHT22;9382;53.242;10.438;2023-07-08T01:55:42;13.70;99.90
18506;DHT22;9382;53.242;10.438;2023-07-08T01:58:09;13.70;99.90
18506;DHT22;9382;53.242;10.438;2023-07-08T02:00:36;13.60;99.90
18506;DHT22;9382;53.242;10.438;2023-07-08T02:03:03;13.60;99.90
18506;DHT22;9382;53.242;10.438;2023-07-08T02:05:29;13.60;99.90
18506;DHT22;9382;53.242;10.438;2023-07-08T02:07:56;13.60;99.90
18506;DHT22;9382;53.242;10.438;2023-07-08T02:10:23;13.60;99.90
18506;DHT22;9382;53.242;10.438;2023-07-08T02:12:52;13.50;99.90
18506;DHT22;9382;53.242;10.438;2023-07-08T02:15:18;13.50;99.90
18506;DHT22;9382;53.242;10.438;2023-07-08T02:17:45;13.50;99.90
18506;DHT22;9382;53.242;10.438;2023-07-08T02:20:12;13.40;99.90
18506;DHT22;9382;53.242;10.438;2023-07-08T02:22:39;13.40;99.90
18506;DHT22;9382;53.242;10.438;2023-07-08T02:25:06;13.40;99.90
18506;DHT22;9382;53.242;10.438;2023-07-08T02:27:34;13.40;99.90
18506;DHT22;9382;53.242;10.438;2023-07-08T02:30:03;13.40;99.90
18506;DHT22;9382;53.242;10.438;2023-07-08T02:32:30;13.30;99.90
18506;DHT22;9382;53.242;10.438;2023-07-08T02:34:59;13.30;99.90
18506;DHT22;9382;53.242;10.438;2023-07-08T02:37:26;13.20;99.90
18506;DHT22;9382;53.242;10.438;2023-07-08T02:39:53;13.20;99.90
18506;DHT22;9382;53.242;10.438;2023-07-08T02:42:20;13.20;99.90
18506;DHT22;9382;53.242;10.438;2023-07-08T02:44:46;13.20;99.90
18506;DHT22;9382;53.242;10.438;2023-07-08T02:47:16;13.20;99.90
18506;DHT22;9382;53.242;10.438;2023-07-08T02:49:43;13.20;99.90
18506;DHT22;9382;53.242;10.438;2023-07-08T02:52:11;13.20;99.90
18506;DHT22;9382;53.242;10.438;2023-07-08T02:54:38;13.20;99.90
18506;DHT22;9382;53.242;10.438;2023-07-08T02:57:04;13.10;99.90
18506;DHT22;9382;53.242;10.438;2023-07-08T02:59:31;13.10;99.90
18506;DHT22;9382;53.242;10.438;2023-07-08T03:01:58;13.10;99.90
18506;DHT22;9382;53.242;10.438;2023-07-08T03:04:26;13.10;99.90
18506;DHT22;9382;53.242;10.438;2023-07-08T03:06:53;13.10;99.90
18506;DHT22;9382;53.242;10.438;2023-07-08T03:09:19;13.10;99.90
18506;DHT22;9382;53.242;10.438;2023-07-08T03:11:46;13.10;99.90
18506;DHT22;9382;53.242;10.438;2023-07-08T03:14:13;13.10;99.90
18506;DHT22;9382;53.242;10.438;2023-07-08T03:16:40;13.10;99.90
18506;DHT22;9382;53.242;10.438;2023-07-08T03:19:08;13.10;99.90
18506;DHT22;9382;53.242;10.438;2023-07-08T03:21:38;13.10;99.90
18506;DHT22;9382;53.242;10.438;2023-07-08T03:24:05;13.10;99.90
18506;DHT22;9382;53.242;10.438;2023-07-08T03:26:32;13.10;99.90
18506;DHT22;9382;53.242;10.438;2023-07-08T03:28:59;13.10;99.90
18506;DHT22;9382;53.242;10.438;2023-07-08T03:31:26;13.10;99.90
18506;DHT22;9382;53.242;10.438;2023-07-08T03:33:53;13.20;99.90
18506;DHT22;9382;53.242;10.438;2023-07-08T03:36:20;13.20;99.90
18506;DHT22;9382;53.242;10.438;2023-07-08T03:38:51;13.20;99.90
18506;DHT22;9382;53.242;10.438;2023-07-08T03:41:18;13.30;99.90
18506;DHT22;9382;53.242;10.438;2023-07-08T03:43:45;13.30;99.90
18506;DHT22;9382;53.242;10.438;2023-07-08T03:46:12;13.30;99.90
18506;DHT22;9382;53.242;10.438;2023-07-08T03:48:39;13.30;99.90
18506;DHT22;9382;53.242;10.438;2023-07-08T03:51:09;13.40;99.90
18506;DHT22;9382;53.242;10.438;2023-07-08T03:53:36;13.40;99.90
18506;DHT22;9382;53.242;10.438;2023-07-08T03:56:04;13.40;99.90
18506;DHT22;9382;53.242;10.438;2023-07-08T03:58:31;13.40;99.90
18506;DHT22;9382;53.242;10.438;2023-07-08T04:00:58;13.50;99.90
18506;DHT22;9382;53.242;10.438;2023-07-08T04:03:24;13.50;99.90
18506;DHT22;9382;53.242;10.438;2023-07-08T04:05:51;13.50;99.90
18506;DHT22;9382;53.242;10.438;2023-07-08T04:08:18;13.60;99.90
18506;DHT22;9382;53.242;10.438;2023-07-08T04:10:44;13.70;99.90
18506;DHT22;9382;53.242;10.438;2023-07-08T04:13:15;13.70;99.90
18506;DHT22;9382;53.242;10.438;2023-07-08T04:15:42;13.80;99.90
18506;DHT22;9382;53.242;10.438;2023-07-08T04:18:08;13.90;99.90
18506;DHT22;9382;53.242;10.438;2023-07-08T04:20:35;14.00;99.90
18506;DHT22;9382;53.242;10.438;2023-07-08T04:23:02;14.10;99.90
18506;DHT22;9382;53.242;10.438;2023-07-08T04:25:28;14.20;99.90
18506;DHT22;9382;53.242;10.438;2023-07-08T04:27:55;14.30;99.90
18506;DHT22;9382;53.242;10.438;2023-07-08T04:30:25;14.40;99.90
18506;DHT22;9382;53.242;10.438;2023-07-08T04:32:52;14.50;99.90
18506;DHT22;9382;53.242;10.438;2023-07-08T04:35:19;14.60;99.90
18506;DHT22;9382;53.242;10.438;2023-07-08T04:37:45;14.80;99.90
18506;DHT22;9382;53.242;10.438;2023-07-08T04:40:17;14.90;99.90
18506;DHT22;9382;53.242;10.438;2023-07-08T04:42:45;15.00;99.90
18506;DHT22;9382;53.242;10.438;2023-07-08T04:45:14;15.20;99.90
18506;DHT22;9382;53.242;10.438;2023-07-08T04:47:42;15.30;99.90
18506;DHT22;9382;53.242;10.438;2023-07-08T04:50:12;15.40;99.90
18506;DHT22;9382;53.242;10.438;2023-07-08T04:52:39;15.40;99.90
18506;DHT22;9382;53.242;10.438;2023-07-08T04:55:06;15.50;99.90
18506;DHT22;9382;53.242;10.438;2023-07-08T04:57:34;15.60;99.90
18506;DHT22;9382;53.242;10.438;2023-07-08T05:00:02;15.70;99.90
18506;DHT22;9382;53.242;10.438;2023-07-08T05:02:32;15.80;99.90
18506;DHT22;9382;53.242;10.438;2023-07-08T05:05:01;15.90;99.90
18506;DHT22;9382;53.242;10.438;2023-07-08T05:07:28;16.00;99.90
18506;DHT22;9382;53.242;10.438;2023-07-08T05:09:54;16.10;99.90
18506;DHT22;9382;53.242;10.438;2023-07-08T05:12:21;16.20;99.90
18506;DHT22;9382;53.242;10.438;2023-07-08T05:14:48;16.30;99.90
18506;DHT22;9382;53.242;10.438;2023-07-08T05:17:15;16.40;99.90
18506;DHT22;9382;53.242;10.438;2023-07-08T05:19:41;16.50;99.90
18506;DHT22;9382;53.242;10.438;2023-07-08T05:22:11;16.60;99.90
18506;DHT22;9382;53.242;10.438;2023-07-08T05:24:38;16.60;99.90
18506;DHT22;9382;53.242;10.438;2023-07-08T05:27:05;16.70;99.90
18506;DHT22;9382;53.242;10.438;2023-07-08T05:29:32;16.80;99.90
18506;DHT22;9382;53.242;10.438;2023-07-08T05:31:58;16.90;99.90
18506;DHT22;9382;53.242;10.438;2023-07-08T05:34:25;17.00;99.90
18506;DHT22;9382;53.242;10.438;2023-07-08T05:36:52;17.10;99.90
18506;DHT22;9382;53.242;10.438;2023-07-08T05:39:20;17.20;99.90
18506;DHT22;9382;53.242;10.438;2023-07-08T05:41:46;17.30;99.90
18506;DHT22;9382;53.242;10.438;2023-07-08T05:44:13;17.30;99.90
18506;DHT22;9382;53.242;10.438;2023-07-08T05:46:40;17.40;99.90
18506;DHT22;9382;53.242;10.438;2023-07-08T05:49:07;17.50;99.90
18506;DHT22;9382;53.242;10.438;2023-07-08T05:51:34;17.60;99.90
18506;DHT22;9382;53.242;10.438;2023-07-08T05:54:00;17.60;99.90
18506;DHT22;9382;53.242;10.438;2023-07-08T05:56:28;17.80;99.90
18506;DHT22;9382;53.242;10.438;2023-07-08T05:58:56;17.90;99.90
18506;DHT22;9382;53.242;10.438;2023-07-08T06:01:23;18.00;99.90
18506;DHT22;9382;53.242;10.438;2023-07-08T06:03:49;18.10;99.90
18506;DHT22;9382;53.242;10.438;2023-07-08T06:06:16;18.30;99.90
18506;DHT22;9382;53.242;10.438;2023-07-08T06:08:43;18.40;99.90
18506;DHT22;9382;53.242;10.438;2023-07-08T06:11:10;18.60;99.90
18506;DHT22;9382;53.242;10.438;2023-07-08T06:13:38;18.70;99.90
18506;DHT22;9382;53.242;10.438;2023-07-08T06:16:05;18.90;99.90
18506;DHT22;9382;53.242;10.438;2023-07-08T06:18:31;19.10;99.90
18506;DHT22;9382;53.242;10.438;2023-07-08T06:20:59;19.20;99.90
18506;DHT22;9382;53.242;10.438;2023-07-08T06:23:26;19.30;99.90
18506;DHT22;9382;53.242;10.438;2023-07-08T06:25:53;19.50;99.90
18506;DHT22;9382;53.242;10.438;2023-07-08T06:28:20;19.70;99.90
18506;DHT22;9382;53.242;10.438;2023-07-08T06:30:49;19.80;99.90
18506;DHT22;9382;53.242;10.438;2023-07-08T06:33:16;20.00;99.90
18506;DHT22;9382;53.242;10.438;2023-07-08T06:35:43;20.20;99.90
18506;DHT22;9382;53.242;10.438;2023-07-08T06:38:10;20.30;99.90
18506;DHT22;9382;53.242;10.438;2023-07-08T06:40:36;20.40;99.90
18506;DHT22;9382;53.242;10.438;2023-07-08T06:43:03;20.60;99.90
18506;DHT22;9382;53.242;10.438;2023-07-08T06:45:30;20.70;99.90
18506;DHT22;9382;53.242;10.438;2023-07-08T06:47:58;20.80;99.90
18506;DHT22;9382;53.242;10.438;2023-07-08T06:50:25;20.90;99.90
18506;DHT22;9382;53.242;10.438;2023-07-08T06:52:52;21.00;99.90
18506;DHT22;9382;53.242;10.438;2023-07-08T06:55:19;21.20;99.90
18506;DHT22;9382;53.242;10.438;2023-07-08T06:57:46;21.30;99.90
18506;DHT22;9382;53.242;10.438;2023-07-08T07:00:13;21.50;99.90
18506;DHT22;9382;53.242;10.438;2023-07-08T07:02:40;21.70;99.90
18506;DHT22;9382;53.242;10.438;2023-07-08T07:05:09;21.80;99.90
18506;DHT22;9382;53.242;10.438;2023-07-08T07:07:36;21.90;99.90
18506;DHT22;9382;53.242;10.438;2023-07-08T07:10:03;22.10;99.90
18506;DHT22;9382;53.242;10.438;2023-07-08T07:12:31;22.30;99.90
18506;DHT22;9382;53.242;10.438;2023-07-08T07:14:57;22.50;99.90
18506;DHT22;9382;53.242;10.438;2023-07-08T07:17:24;22.50;99.90
18506;DHT22;9382;53.242;10.438;2023-07-08T07:19:52;22.70;99.90
18506;DHT22;9382;53.242;10.438;2023-07-08T07:22:20;22.80;99.90
18506;DHT22;9382;53.242;10.438;2023-07-08T07:24:48;23.00;99.90
18506;DHT22;9382;53.242;10.438;2023-07-08T07:27:15;23.10;99.90
18506;DHT22;9382;53.242;10.438;2023-07-08T07:29:43;23.30;99.90
18506;DHT22;9382;53.242;10.438;2023-07-08T07:32:11;23.40;99.90
18506;DHT22;9382;53.242;10.438;2023-07-08T07:34:38;23.50;99.90
18506;DHT22;9382;53.242;10.438;2023-07-08T07:37:05;23.70;99.90
18506;DHT22;9382;53.242;10.438;2023-07-08T07:39:33;23.80;99.90
18506;DHT22;9382;53.242;10.438;2023-07-08T07:42:00;24.00;99.90
18506;DHT22;9382;53.242;10.438;2023-07-08T07:44:27;24.20;99.90
18506;DHT22;9382;53.242;10.438;2023-07-08T07:46:53;24.20;99.90
18506;DHT22;9382;53.242;10.438;2023-07-08T07:49:20;24.30;99.90
18506;DHT22;9382;53.242;10.438;2023-07-08T07:51:48;24.40;99.90
18506;DHT22;9382;53.242;10.438;2023-07-08T07:54:15;24.60;99.90
18506;DHT22;9382;53.242;10.438;2023-07-08T07:56:43;24.60;99.90
18506;DHT22;9382;53.242;10.438;2023-07-08T07:59:10;24.70;99.90
18506;DHT22;9382;53.242;10.438;2023-07-08T08:01:37;24.80;99.90
18506;DHT22;9382;53.242;10.438;2023-07-08T08:04:04;24.90;99.90
18506;DHT22;9382;53.242;10.438;2023-07-08T08:06:31;25.10;99.90
18506;DHT22;9382;53.242;10.438;2023-07-08T08:08:57;25.30;99.90
18506;DHT22;9382;53.242;10.438;2023-07-08T08:11:24;25.40;99.90
18506;DHT22;9382;53.242;10.438;2023-07-08T08:13:53;25.50;99.90
18506;DHT22;9382;53.242;10.438;2023-07-08T08:16:21;25.60;99.90
18506;DHT22;9382;53.242;10.438;2023-07-08T08:18:47;25.70;99.90
18506;DHT22;9382;53.242;10.438;2023-07-08T08:21:14;25.90;99.90
18506;DHT22;9382;53.242;10.438;2023-07-08T08:23:41;26.00;99.90
18506;DHT22;9382;53.242;10.438;2023-07-08T08:26:08;26.10;99.90
18506;DHT22;9382;53.242;10.438;2023-07-08T08:28:35;26.10;99.90
18506;DHT22;9382;53.242;10.438;2023-07-08T08:31:03;26.30;99.90
18506;DHT22;9382;53.242;10.438;2023-07-08T08:33:30;26.50;99.90
18506;DHT22;9382;53.242;10.438;2023-07-08T08:35:56;26.60;99.90
18506;DHT22;9382;53.242;10.438;2023-07-08T08:38:23;26.70;99.90
18506;DHT22;9382;53.242;10.438;2023-07-08T08:40:50;26.90;99.90
18506;DHT22;9382;53.242;10.438;2023-07-08T08:43:19;27.00;99.90
18506;DHT22;9382;53.242;10.438;2023-07-08T08:45:53;27.20;99.90
18506;DHT22;9382;53.242;10.438;2023-07-08T08:48:23;27.50;99.90
18506;DHT22;9382;53.242;10.438;2023-07-08T08:50:53;27.70;99.90
18506;DHT22;9382;53.242;10.438;2023-07-08T08:53:23;27.90;99.90
18506;DHT22;9382;53.242;10.438;2023-07-08T08:55:55;27.90;99.90
18506;DHT22;9382;53.242;10.438;2023-07-08T08:58:30;28.00;99.90
18506;DHT22;9382;53.242;10.438;2023-07-08T09:01:01;28.20;99.90
18506;DHT22;9382;53.242;10.438;2023-07-08T09:03:36;28.40;99.90
18506;DHT22;9382;53.242;10.438;2023-07-08T09:06:10;28.50;99.90
18506;DHT22;9382;53.242;10.438;2023-07-08T09:08:38;28.50;99.90
18506;DHT22;9382;53.242;10.438;2023-07-08T09:11:13;28.70;99.90
18506;DHT22;9382;53.242;10.438;2023-07-08T09:13:41;28.90;99.90
18506;DHT22;9382;53.242;10.438;2023-07-08T09:16:15;29.10;99.90
18506;DHT22;9382;53.242;10.438;2023-07-08T09:18:57;29.20;99.90
18506;DHT22;9382;53.242;10.438;2023-07-08T09:21:28;29.40;99.90
18506;DHT22;9382;53.242;10.438;2023-07-08T09:24:01;29.70;99.90
18506;DHT22;9382;53.242;10.438;2023-07-08T09:26:30;30.00;99.90
18506;DHT22;9382;53.242;10.438;2023-07-08T09:28:59;30.20;99.90
18506;DHT22;9382;53.242;10.438;2023-07-08T09:31:27;30.30;99.90
18506;DHT22;9382;53.242;10.438;2023-07-08T09:34:06;30.50;99.90
18506;DHT22;9382;53.242;10.438;2023-07-08T09:36:33;30.70;99.90
18506;DHT22;9382;53.242;10.438;2023-07-08T09:39:00;30.60;99.90
18506;DHT22;9382;53.242;10.438;2023-07-08T09:41:33;30.80;99.90
18506;DHT22;9382;53.242;10.438;2023-07-08T09:44:18;31.10;99.90
18506;DHT22;9382;53.242;10.438;2023-07-08T09:46:48;31.30;99.90
18506;DHT22;9382;53.242;10.438;2023-07-08T09:49:19;31.30;99.90
18506;DHT22;9382;53.242;10.438;2023-07-08T09:51:48;31.30;99.90
18506;DHT22;9382;53.242;10.438;2023-07-08T09:54:16;31.50;99.90
18506;DHT22;9382;53.242;10.438;2023-07-08T09:56:44;31.70;99.90
18506;DHT22;9382;53.242;10.438;2023-07-08T09:59:13;31.80;99.90
18506;DHT22;9382;53.242;10.438;2023-07-08T10:01:41;31.90;99.90
18506;DHT22;9382;53.242;10.438;2023-07-08T10:04:08;32.10;99.90
18506;DHT22;9382;53.242;10.438;2023-07-08T10:06:36;32.00;99.90
18506;DHT22;9382;53.242;10.438;2023-07-08T10:09:08;32.00;99.90
18506;DHT22;9382;53.242;10.438;2023-07-08T10:11:41;32.20;99.90
18506;DHT22;9382;53.242;10.438;2023-07-08T10:14:13;32.50;99.90
18506;DHT22;9382;53.242;10.438;2023-07-08T10:16:43;32.70;99.90
18506;DHT22;9382;53.242;10.438;2023-07-08T10:19:13;32.60;99.90
18506;DHT22;9382;53.242;10.438;2023-07-08T10:21:50;32.80;99.90
18506;DHT22;9382;53.242;10.438;2023-07-08T10:24:28;33.10;99.90
18506;DHT22;9382;53.242;10.438;2023-07-08T10:26:59;33.20;99.90
18506;DHT22;9382;53.242;10.438;2023-07-08T10:29:34;33.40;99.90
18506;DHT22;9382;53.242;10.438;2023-07-08T10:32:15;33.50;98.60
18506;DHT22;9382;53.242;10.438;2023-07-08T10:34:48;33.50;97.10
18506;DHT22;9382;53.242;10.438;2023-07-08T10:37:24;33.40;95.90
18506;DHT22;9382;53.242;10.438;2023-07-08T10:40:02;33.30;96.10
18506;DHT22;9382;53.242;10.438;2023-07-08T10:42:50;33.60;99.30
18506;DHT22;9382;53.242;10.438;2023-07-08T10:45:25;33.90;99.50
18506;DHT22;9382;53.242;10.438;2023-07-08T10:48:09;34.10;98.10
18506;DHT22;9382;53.242;10.438;2023-07-08T10:50:53;34.20;95.40
18506;DHT22;9382;53.242;10.438;2023-07-08T10:53:35;34.10;93.90
18506;DHT22;9382;53.242;10.438;2023-07-08T10:56:11;34.20;92.90
18506;DHT22;9382;53.242;10.438;2023-07-08T10:58:58;34.20;95.70
18506;DHT22;9382;53.242;10.438;2023-07-08T11:01:34;34.30;94.50
18506;DHT22;9382;53.242;10.438;2023-07-08T11:04:20;34.50;93.10
18506;DHT22;9382;53.242;10.438;2023-07-08T11:06:52;34.60;90.50
18506;DHT22;9382;53.242;10.438;2023-07-08T11:09:25;34.60;88.50
18506;DHT22;9382;53.242;10.438;2023-07-08T11:11:55;34.50;91.50
18506;DHT22;9382;53.242;10.438;2023-07-08T11:14:29;34.70;87.60
18506;DHT22;9382;53.242;10.438;2023-07-08T11:17:05;34.70;92.00
18506;DHT22;9382;53.242;10.438;2023-07-08T11:19:37;35.00;91.80
18506;DHT22;9382;53.242;10.438;2023-07-08T11:22:09;35.30;91.10
18506;DHT22;9382;53.242;10.438;2023-07-08T11:24:43;35.50;88.00
18506;DHT22;9382;53.242;10.438;2023-07-08T11:27:15;35.40;86.00
18506;DHT22;9382;53.242;10.438;2023-07-08T11:29:48;35.30;86.80
18506;DHT22;9382;53.242;10.438;2023-07-08T11:32:17;35.40;84.20
18506;DHT22;9382;53.242;10.438;2023-07-08T11:34:50;35.60;87.20
18506;DHT22;9382;53.242;10.438;2023-07-08T11:37:18;35.80;87.60
18506;DHT22;9382;53.242;10.438;2023-07-08T11:39:53;35.90;81.60
18506;DHT22;9382;53.242;10.438;2023-07-08T11:42:23;36.00;88.30
18506;DHT22;9382;53.242;10.438;2023-07-08T11:44:52;36.20;86.40
18506;DHT22;9382;53.242;10.438;2023-07-08T11:47:24;36.50;85.00
18506;DHT22;9382;53.242;10.438;2023-07-08T11:49:52;36.50;84.00
18506;DHT22;9382;53.242;10.438;2023-07-08T11:52:21;36.70;80.20
18506;DHT22;9382;53.242;10.438;2023-07-08T11:54:56;36.40;79.20
18506;DHT22;9382;53.242;10.438;2023-07-08T11:57:28;36.50;84.90
18506;DHT22;9382;53.242;10.438;2023-07-08T12:00:15;36.80;77.80
18506;DHT22;9382;53.242;10.438;2023-07-08T12:02:48;37.00;86.30
18506;DHT22;9382;53.242;10.438;2023-07-08T12:05:15;37.30;79.20
18506;DHT22;9382;53.242;10.438;2023-07-08T12:07:45;37.70;79.90
18506;DHT22;9382;53.242;10.438;2023-07-08T12:10:16;38.10;79.10
18506;DHT22;9382;53.242;10.438;2023-07-08T12:12:45;38.40;82.20
18506;DHT22;9382;53.242;10.438;2023-07-08T12:15:15;38.50;74.50
18506;DHT22;9382;53.242;10.438;2023-07-08T12:17:43;38.60;76.00
18506;DHT22;9382;53.242;10.438;2023-07-08T12:20:17;38.70;69.60
18506;DHT22;9382;53.242;10.438;2023-07-08T12:22:44;38.80;79.60
18506;DHT22;9382;53.242;10.438;2023-07-08T12:25:14;39.20;76.10
18506;DHT22;9382;53.242;10.438;2023-07-08T12:27:42;39.70;72.50
18506;DHT22;9382;53.242;10.438;2023-07-08T12:30:10;39.90;73.50
18506;DHT22;9382;53.242;10.438;2023-07-08T12:32:37;40.10;68.40
18506;DHT22;9382;53.242;10.438;2023-07-08T12:35:05;40.20;69.20
18506;DHT22;9382;53.242;10.438;2023-07-08T12:37:43;39.90;72.60
18506;DHT22;9382;53.242;10.438;2023-07-08T12:40:10;40.20;68.80
18506;DHT22;9382;53.242;10.438;2023-07-08T12:42:38;40.50;67.40
18506;DHT22;9382;53.242;10.438;2023-07-08T12:45:13;40.80;65.20
18506;DHT22;9382;53.242;10.438;2023-07-08T12:47:40;41.00;60.60
18506;DHT22;9382;53.242;10.438;2023-07-08T12:50:08;41.00;61.40
18506;DHT22;9382;53.242;10.438;2023-07-08T12:52:35;41.00;64.10
18506;DHT22;9382;53.242;10.438;2023-07-08T12:55:02;41.30;57.20
18506;DHT22;9382;53.242;10.438;2023-07-08T12:57:29;40.80;62.30
18506;DHT22;9382;53.242;10.438;2023-07-08T12:59:58;41.20;62.80
18506;DHT22;9382;53.242;10.438;2023-07-08T13:02:27;41.70;58.60
18506;DHT22;9382;53.242;10.438;2023-07-08T13:04:59;41.50;63.20
18506;DHT22;9382;53.242;10.438;2023-07-08T13:07:33;41.80;61.20
18506;DHT22;9382;53.242;10.438;2023-07-08T13:10:01;42.00;57.00
18506;DHT22;9382;53.242;10.438;2023-07-08T13:12:28;42.00;63.90
18506;DHT22;9382;53.242;10.438;2023-07-08T13:14:59;42.30;59.00
18506;DHT22;9382;53.242;10.438;2023-07-08T13:17:26;42.70;59.50
18506;DHT22;9382;53.242;10.438;2023-07-08T13:19:53;43.10;57.50
18506;DHT22;9382;53.242;10.438;2023-07-08T13:22:22;42.90;60.80
18506;DHT22;9382;53.242;10.438;2023-07-08T13:24:49;43.00;60.80
18506;DHT22;9382;53.242;10.438;2023-07-08T13:27:25;43.00;60.80
18506;DHT22;9382;53.242;10.438;2023-07-08T13:29:52;43.60;57.00
18506;DHT22;9382;53.242;10.438;2023-07-08T13:32:20;43.90;59.20
18506;DHT22;9382;53.242;10.438;2023-07-08T13:34:49;44.30;55.70
18506;DHT22;9382;53.242;10.438;2023-07-08T13:37:17;44.60;56.60
18506;DHT22;9382;53.242;10.438;2023-07-08T13:39:46;44.80;58.40
18506;DHT22;9382;53.242;10.438;2023-07-08T13:42:13;45.10;58.90
18506;DHT22;9382;53.242;10.438;2023-07-08T13:44:43;45.10;56.00
18506;DHT22;9382;53.242;10.438;2023-07-08T13:47:23;45.00;56.80
18506;DHT22;9382;53.242;10.438;2023-07-08T13:49:55;44.50;54.50
18506;DHT22;9382;53.242;10.438;2023-07-08T13:52:23;42.70;53.90
18506;DHT22;9382;53.242;10.438;2023-07-08T13:54:51;41.60;57.40
18506;DHT22;9382;53.242;10.438;2023-07-08T13:57:22;42.10;58.40
18506;DHT22;9382;53.242;10.438;2023-07-08T13:59:49;42.80;54.60
18506;DHT22;9382;53.242;10.438;2023-07-08T14:02:18;43.10;57.00
18506;DHT22;9382;53.242;10.438;2023-07-08T14:04:48;43.40;53.80
18506;DHT22;9382;53.242;10.438;2023-07-08T14:07:17;43.90;55.90
18506;DHT22;9382;53.242;10.438;2023-07-08T14:09:44;44.60;54.60
18506;DHT22;9382;53.242;10.438;2023-07-08T14:12:11;44.80;55.20
18506;DHT22;9382;53.242;10.438;2023-07-08T14:14:38;45.20;55.80
18506;DHT22;9382;53.242;10.438;2023-07-08T14:17:05;45.20;55.10
18506;DHT22;9382;53.242;10.438;2023-07-08T14:19:34;45.30;52.70
18506;DHT22;9382;53.242;10.438;2023-07-08T14:22:16;45.60;50.20
18506;DHT22;9382;53.242;10.438;2023-07-08T14:24:45;45.40;55.40
18506;DHT22;9382;53.242;10.438;2023-07-08T14:27:12;45.50;50.40
18506;DHT22;9382;53.242;10.438;2023-07-08T14:29:39;45.70;50.10
18506;DHT22;9382;53.242;10.438;2023-07-08T14:32:11;45.40;49.00
18506;DHT22;9382;53.242;10.438;2023-07-08T14:34:40;44.70;53.60
18506;DHT22;9382;53.242;10.438;2023-07-08T14:37:13;45.10;52.70
18506;DHT22;9382;53.242;10.438;2023-07-08T14:39:41;45.60;50.20
18506;DHT22;9382;53.242;10.438;2023-07-08T14:42:10;45.90;51.80
18506;DHT22;9382;53.242;10.438;2023-07-08T14:44:37;45.90;51.50
18506;DHT22;9382;53.242;10.438;2023-07-08T14:47:07;46.20;52.30
18506;DHT22;9382;53.242;10.438;2023-07-08T14:49:34;46.70;51.00
18506;DHT22;9382;53.242;10.438;2023-07-08T14:52:01;46.50;48.90
18506;DHT22;9382;53.242;10.438;2023-07-08T14:54:29;45.30;53.30
18506;DHT22;9382;53.242;10.438;2023-07-08T14:56:57;45.30;53.30
18506;DHT22;9382;53.242;10.438;2023-07-08T14:59:26;45.70;52.60
18506;DHT22;9382;53.242;10.438;2023-07-08T15:01:55;45.90;50.00
18506;DHT22;9382;53.242;10.438;2023-07-08T15:04:22;45.60;49.00
18506;DHT22;9382;53.242;10.438;2023-07-08T15:06:49;45.60;49.20
18506;DHT22;9382;53.242;10.438;2023-07-08T15:09:17;45.80;51.60
18506;DHT22;9382;53.242;10.438;2023-07-08T15:11:46;46.10;52.40
18506;DHT22;9382;53.242;10.438;2023-07-08T15:14:17;46.50;48.80
18506;DHT22;9382;53.242;10.438;2023-07-08T15:16:44;46.40;53.00
18506;DHT22;9382;53.242;10.438;2023-07-08T15:19:12;46.30;51.70
18506;DHT22;9382;53.242;10.438;2023-07-08T15:21:39;46.10;50.50
18506;DHT22;9382;53.242;10.438;2023-07-08T15:24:09;45.80;52.40
18506;DHT22;9382;53.242;10.438;2023-07-08T15:26:36;45.40;53.70
18506;DHT22;9382;53.242;10.438;2023-07-08T15:29:05;44.10;51.00
18506;DHT22;9382;53.242;10.438;2023-07-08T15:31:34;42.10;50.30
18506;DHT22;9382;53.242;10.438;2023-07-08T15:34:01;40.60;52.10
18506;DHT22;9382;53.242;10.438;2023-07-08T15:36:31;41.10;55.70
18506;DHT22;9382;53.242;10.438;2023-07-08T15:38:57;42.50;55.60
18506;DHT22;9382;53.242;10.438;2023-07-08T15:41:26;43.50;52.00